• °C
  • Pobieranie danych...
wx

PRINT OUT SECTION, show »

METAR EPCE 230900Z 33013KT 290V360 9999 FEW046 07/M06
Q1018 RMK 072 039 2/2=

METAR EPDA 230900Z 28009KT 230V310 CAVOK 07/04
Q1020 RMK 069 082 0/0=

METAR EPDE 230900Z 28016KT 9999 SCT040 BKN080 09/M04 Q1019 RMK 087
039 5/4=

METAR EPIR 230900Z 24014KT 9999 SCT025 BKN033 09/02 Q1019 RMK 092 058
6/3=

METAR EPKS 230900Z 30016KT 9999 BKN025 08/05 Q1022 RMK 076 082 7/7=

METAR EPLK 230900Z 29016KT 250V320 9999 SCT034 08/03 Q1020 RMK 081
068 4/4=

METAR EPLY 230900Z 26012KT 9999 SCT020 BKN080 08/00 Q1020 RMK 081 055
5/3=

METAR EPMB 230900Z AUTO 29014G24KT 260V320 9999 FEW056/// SCT068///
BKN095/// 10/M04 Q1017 RMK 096 039 7/2=

METAR EPMI 230900Z 29012KT 9999 BKN025 07/00 Q1020 RMK 070 063 7/7=

METAR EPMM 230900Z 30020KT 9999 BKN040 08/M02 Q1018 RMK 080 049 5/5=

METAR COR EPNA 230900Z 30020KT 9999 BKN020CB OVC030 07/M01 Q1020 RMK
070 060 8/5=
286
SAPL97 SOPR 230900 RRC

METAR EPOK 230900Z 32017KT 9999 FEW052 08/M05
Q1017 RMK 076 042 1/1=

METAR EPPR 230900Z 31018KT 9999 SCT050 09/M05 Q1017 RMK 092 037 3/3=

METAR EPPW 230900Z 30016KT 9999 SCT020 BKN033 09/01 Q1020
RMK 087 058 6/4=

METAR EPRA 230900Z NIL=

METAR EPSN 230900Z 29014KT 9999 SCT017 BKN022 07/03 Q1020 RMK 070
075 6/3=

METAR EPTM 230900Z 26016G30KT 8000 -SHRA BKN024CB 06/M02 Q1020 RMK
064 054 6/6=
 METAR EPLY
Lokalizacja:EPLY Łęczyca
Czas:09:00 UTC
Średni kierunek wiatru:260 °
Średnia prędkość wiatru:12 węzłów
Widzialność:10 km i więcej
Pierwsza warstwa chmur:3/8 do 4/8, wysokość podstawy 2000 FT
Druga warstwa chmur:5/8 do 7/8, wysokość podstawy 8000 FT
Temperatura powietrza:8 °C
Temperatura punktu rosy:0 °C
Ciśnienie QNH:1020 hPa
Dokładna temperatura powietrza:8,1 °C
Dokładna wilgotność względna:55 %
Zachmurzenie przez wszystkie piętra chmur:5/8
Zachmurzenie przez chmury niskie:3/8



IMGW-PIB Sites